createdAt,value
2023-05-15T00:02:35.424Z,13.30
2023-05-15T00:05:37.322Z,13.30
2023-05-15T00:08:39.316Z,13.20
2023-05-15T00:11:41.202Z,13.10
2023-05-15T00:14:43.058Z,13.10
2023-05-15T00:17:44.866Z,13.10
2023-05-15T00:20:46.770Z,13.00
2023-05-15T00:23:48.650Z,13.00
2023-05-15T00:26:53.172Z,13.00
2023-05-15T00:29:54.955Z,13.00
2023-05-15T00:32:57.233Z,12.80
2023-05-15T00:35:58.997Z,13.00
2023-05-15T00:39:00.704Z,13.00
2023-05-15T00:42:04.812Z,13.00
2023-05-15T00:45:10.466Z,13.10
2023-05-15T00:48:12.906Z,13.00
2023-05-15T00:51:14.846Z,13.10
2023-05-15T00:54:17.034Z,13.10
2023-05-15T00:57:20.223Z,13.10
2023-05-15T01:00:22.387Z,13.00
2023-05-15T01:03:24.500Z,13.10
2023-05-15T01:06:26.583Z,13.00
2023-05-15T01:09:30.958Z,13.10
2023-05-15T01:12:34.202Z,13.10
2023-05-15T01:15:36.262Z,13.00
2023-05-15T01:18:38.373Z,13.00
2023-05-15T01:22:12.330Z,12.90
2023-05-15T01:25:58.366Z,12.90
2023-05-15T01:29:19.061Z,12.90
2023-05-15T01:32:26.374Z,12.90
2023-05-15T01:35:35.963Z,12.80
2023-05-15T01:38:43.031Z,12.80
2023-05-15T01:42:06.631Z,12.80
2023-05-15T01:45:11.902Z,12.70
2023-05-15T01:48:15.079Z,12.70
2023-05-15T01:51:17.876Z,12.60
2023-05-15T01:54:21.008Z,12.60
2023-05-15T01:57:24.611Z,12.60
2023-05-15T02:00:26.453Z,12.60
2023-05-15T02:03:29.824Z,12.40
2023-05-15T02:06:33.416Z,12.50
2023-05-15T02:09:36.183Z,12.40
2023-05-15T02:12:40.405Z,12.30
2023-05-15T02:15:42.438Z,12.30
2023-05-15T02:18:44.338Z,12.30
2023-05-15T02:21:46.218Z,12.20
2023-05-15T02:24:48.170Z,12.10
2023-05-15T02:28:00.251Z,12.10
2023-05-15T02:31:08.455Z,12.00
2023-05-15T02:34:34.701Z,12.00
2023-05-15T02:37:40.066Z,11.90
2023-05-15T02:40:42.740Z,11.80
2023-05-15T02:43:45.906Z,11.70
2023-05-15T02:46:52.932Z,11.70
2023-05-15T02:49:55.028Z,11.60
2023-05-15T02:53:07.413Z,11.50
2023-05-15T02:56:10.109Z,11.40
2023-05-15T02:59:13.459Z,11.40
2023-05-15T03:02:15.590Z,11.30
2023-05-15T03:05:17.484Z,11.20
2023-05-15T03:08:19.761Z,11.10
2023-05-15T03:11:21.567Z,11.10
2023-05-15T03:14:23.414Z,11.10
2023-05-15T03:17:25.288Z,11.00
2023-05-15T03:20:27.096Z,10.90
2023-05-15T03:23:29.043Z,10.90
2023-05-15T03:26:30.821Z,10.80
2023-05-15T03:29:32.636Z,10.80
2023-05-15T03:32:34.696Z,10.70
2023-05-15T03:35:36.484Z,10.90
2023-05-15T03:38:38.407Z,10.60
2023-05-15T03:41:40.304Z,10.60
2023-05-15T03:44:42.051Z,10.50
2023-05-15T03:47:43.875Z,10.50
2023-05-15T03:50:46.293Z,10.50
2023-05-15T03:53:48.074Z,10.40
2023-05-15T03:56:49.993Z,10.40
2023-05-15T03:59:51.750Z,10.40
2023-05-15T04:02:53.580Z,10.40
2023-05-15T04:05:56.675Z,10.40
2023-05-15T04:08:58.504Z,10.30
2023-05-15T04:12:00.364Z,10.40
2023-05-15T04:15:17.038Z,10.30
2023-05-15T04:18:18.983Z,10.40
2023-05-15T04:21:20.871Z,10.30
2023-05-15T04:24:23.205Z,10.30
2023-05-15T04:27:24.961Z,10.40
2023-05-15T04:30:27.007Z,10.30
2023-05-15T04:33:29.091Z,10.40
2023-05-15T04:36:32.012Z,10.40
2023-05-15T04:39:33.997Z,10.40
2023-05-15T04:42:38.571Z,10.50
2023-05-15T04:45:41.456Z,10.50
2023-05-15T04:48:43.333Z,10.50
2023-05-15T04:51:45.961Z,10.60
2023-05-15T04:54:49.676Z,10.60
2023-05-15T04:57:51.539Z,10.60
2023-05-15T05:00:53.856Z,10.60
2023-05-15T05:03:55.768Z,10.60
2023-05-15T05:06:57.667Z,10.60
2023-05-15T05:09:59.502Z,10.70
2023-05-15T05:13:01.314Z,10.70
2023-05-15T05:16:03.262Z,10.70
2023-05-15T05:19:05.902Z,10.80
2023-05-15T05:22:08.046Z,10.80
2023-05-15T05:25:10.161Z,10.90
2023-05-15T05:28:12.356Z,11.10
2023-05-15T05:31:14.297Z,11.50
2023-05-15T05:34:17.062Z,12.10
2023-05-15T05:37:19.032Z,12.80
2023-05-15T05:40:20.778Z,13.50
2023-05-15T05:43:22.547Z,14.20
2023-05-15T05:46:24.358Z,14.80
2023-05-15T05:49:26.270Z,15.40
2023-05-15T05:52:29.378Z,15.80
2023-05-15T05:55:31.217Z,16.20
2023-05-15T05:58:33.006Z,16.60
2023-05-15T06:01:34.976Z,16.90
2023-05-15T06:04:36.988Z,17.30
2023-05-15T06:07:39.116Z,17.50
2023-05-15T06:10:41.890Z,17.80
2023-05-15T06:13:43.719Z,18.00
2023-05-15T06:16:45.570Z,18.10
2023-05-15T06:19:47.624Z,18.30
2023-05-15T06:22:49.603Z,18.40
2023-05-15T06:25:51.512Z,18.60
2023-05-15T06:28:53.286Z,18.90
2023-05-15T06:31:55.523Z,19.20
2023-05-15T06:34:57.368Z,19.50
2023-05-15T06:37:59.212Z,19.70
2023-05-15T06:41:01.081Z,19.90
2023-05-15T06:44:02.826Z,20.20
2023-05-15T06:47:05.107Z,20.40
2023-05-15T06:50:08.030Z,20.70
2023-05-15T06:53:11.689Z,20.80
2023-05-15T06:56:14.804Z,20.80
2023-05-15T06:59:16.659Z,20.70
2023-05-15T07:02:18.696Z,20.70
2023-05-15T07:05:21.892Z,20.70
2023-05-15T07:08:23.712Z,20.90
2023-05-15T07:11:26.020Z,21.10
2023-05-15T07:14:28.760Z,21.30
2023-05-15T07:17:32.588Z,21.60
2023-05-15T07:20:35.301Z,21.90
2023-05-15T07:23:37.361Z,22.20
2023-05-15T07:26:50.298Z,22.40
2023-05-15T07:29:59.155Z,22.70
2023-05-15T07:33:01.087Z,22.90
2023-05-15T07:36:03.154Z,23.10
2023-05-15T07:39:05.175Z,23.20
2023-05-15T07:42:07.290Z,23.40
2023-05-15T07:45:09.722Z,23.50
2023-05-15T07:48:15.968Z,23.60
2023-05-15T07:51:18.013Z,23.70
2023-05-15T07:54:19.809Z,23.80
2023-05-15T07:57:21.536Z,23.80
2023-05-15T08:00:23.439Z,23.90
2023-05-15T08:03:25.611Z,24.10
2023-05-15T08:06:27.612Z,24.00
2023-05-15T08:09:29.948Z,24.20
2023-05-15T08:12:32.076Z,24.40
2023-05-15T08:15:33.884Z,24.40
2023-05-15T08:18:35.825Z,24.50
2023-05-15T08:21:37.710Z,24.60
2023-05-15T08:24:40.228Z,24.70
2023-05-15T08:27:42.086Z,24.60
2023-05-15T08:30:43.868Z,24.70
2023-05-15T08:33:45.975Z,24.40
2023-05-15T08:36:47.933Z,24.30
2023-05-15T08:39:49.730Z,24.30
2023-05-15T08:42:55.715Z,24.20
2023-05-15T08:45:58.431Z,24.20
2023-05-15T08:49:10.415Z,24.10
2023-05-15T08:52:12.708Z,24.10
2023-05-15T08:55:15.379Z,24.00
2023-05-15T08:58:17.428Z,23.90
2023-05-15T09:01:19.222Z,23.70
2023-05-15T09:04:21.072Z,23.50
2023-05-15T09:07:23.462Z,23.20
2023-05-15T09:10:27.239Z,22.90
2023-05-15T09:13:29.504Z,22.60
2023-05-15T09:16:31.312Z,22.30
2023-05-15T09:19:34.823Z,21.90
2023-05-15T09:22:36.794Z,21.50
2023-05-15T09:25:44.486Z,21.10
2023-05-15T09:28:46.642Z,20.60
2023-05-15T09:31:48.758Z,20.10
2023-05-15T09:34:50.543Z,19.70
2023-05-15T09:37:59.851Z,19.20
2023-05-15T09:41:03.548Z,18.80
2023-05-15T09:44:05.496Z,18.60
2023-05-15T09:47:07.918Z,18.30
2023-05-15T09:50:10.630Z,18.10
2023-05-15T09:53:14.148Z,18.00
2023-05-15T09:56:16.952Z,17.90
2023-05-15T09:59:21.573Z,17.90
2023-05-15T10:02:25.231Z,17.90
2023-05-15T10:05:41.948Z,17.90
2023-05-15T10:08:52.306Z,17.90
2023-05-15T10:11:54.173Z,17.90
2023-05-15T10:14:57.313Z,18.00
2023-05-15T10:18:00.194Z,18.00
2023-05-15T10:21:04.483Z,18.00
2023-05-15T10:24:07.467Z,18.10
2023-05-15T10:27:10.868Z,18.20
2023-05-15T10:30:15.406Z,18.30
2023-05-15T10:33:17.889Z,18.30
2023-05-15T10:36:19.948Z,18.30
2023-05-15T10:39:22.310Z,18.30
2023-05-15T10:42:26.605Z,18.30
2023-05-15T10:45:29.984Z,18.30
2023-05-15T10:48:33.270Z,18.30
2023-05-15T10:51:37.678Z,18.30
2023-05-15T10:54:39.436Z,18.30
2023-05-15T10:57:41.514Z,18.30
2023-05-15T11:00:45.375Z,18.30
2023-05-15T11:03:50.144Z,18.30
2023-05-15T11:07:12.398Z,18.40
2023-05-15T11:10:29.304Z,18.50
2023-05-15T11:14:12.050Z,18.70
2023-05-15T11:17:17.734Z,18.80
2023-05-15T11:20:19.950Z,18.90
2023-05-15T11:23:22.947Z,19.00
2023-05-15T11:26:33.474Z,19.10
2023-05-15T11:29:35.506Z,19.10
2023-05-15T11:32:43.641Z,19.20
2023-05-15T11:35:47.654Z,19.20
2023-05-15T11:38:51.004Z,19.20
2023-05-15T11:41:53.437Z,19.30
2023-05-15T11:44:57.022Z,19.30
2023-05-15T11:48:02.553Z,19.30
2023-05-15T11:51:05.667Z,19.40
2023-05-15T11:54:08.520Z,19.60
2023-05-15T11:57:10.591Z,19.60
2023-05-15T12:00:13.480Z,19.80
2023-05-15T12:03:17.209Z,19.90
2023-05-15T12:06:19.722Z,20.20
2023-05-15T12:09:29.307Z,20.20
2023-05-15T12:12:32.189Z,20.40
2023-05-15T12:15:37.865Z,20.50
2023-05-15T12:18:39.712Z,20.60
2023-05-15T12:21:46.679Z,20.70
2023-05-15T12:24:48.480Z,20.70
2023-05-15T12:27:50.521Z,20.80
2023-05-15T12:30:53.141Z,21.10
2023-05-15T12:33:56.169Z,21.00
2023-05-15T12:36:59.972Z,21.10
2023-05-15T12:40:10.672Z,21.10
2023-05-15T12:43:14.695Z,21.00
2023-05-15T12:46:16.803Z,21.10
2023-05-15T12:49:22.991Z,21.20
2023-05-15T12:52:29.162Z,21.30
2023-05-15T12:55:36.461Z,21.50
2023-05-15T12:58:38.942Z,21.80
2023-05-15T13:01:42.664Z,21.90
2023-05-15T13:04:47.312Z,22.10
2023-05-15T13:07:49.316Z,22.20
2023-05-15T13:10:58.006Z,22.40
2023-05-15T13:13:59.839Z,22.40
2023-05-15T13:17:04.847Z,22.50
2023-05-15T13:20:08.428Z,22.50
2023-05-15T13:23:12.421Z,22.40
2023-05-15T13:26:14.558Z,22.40
2023-05-15T13:29:16.483Z,22.30
2023-05-15T13:32:18.364Z,22.30
2023-05-15T13:35:20.503Z,22.30
2023-05-15T13:38:22.257Z,22.30
2023-05-15T13:41:24.231Z,22.30
2023-05-15T13:44:26.051Z,22.30
2023-05-15T13:47:27.861Z,22.20
2023-05-15T13:50:29.684Z,22.50
2023-05-15T13:53:31.424Z,22.60
2023-05-15T13:56:33.176Z,22.70
2023-05-15T13:59:35.055Z,22.90
2023-05-15T14:02:36.818Z,23.00
2023-05-15T14:05:38.829Z,23.00
2023-05-15T14:08:40.548Z,23.10
2023-05-15T14:11:42.380Z,23.10
2023-05-15T14:14:46.921Z,23.10
2023-05-15T14:17:49.568Z,23.00
2023-05-15T14:20:52.394Z,22.90
2023-05-15T14:23:54.256Z,22.90
2023-05-15T14:26:56.388Z,23.00
2023-05-15T14:29:58.393Z,22.80
2023-05-15T14:33:00.245Z,22.80
2023-05-15T14:36:05.163Z,22.70
2023-05-15T14:39:07.169Z,22.70
2023-05-15T14:42:08.990Z,22.70
2023-05-15T14:45:11.171Z,22.70
2023-05-15T14:48:13.038Z,22.60
2023-05-15T14:51:16.761Z,22.60
2023-05-15T14:54:20.079Z,22.50
2023-05-15T14:57:21.931Z,22.30
2023-05-15T15:00:24.183Z,22.10
2023-05-15T15:03:28.634Z,21.90
2023-05-15T15:06:32.777Z,21.60
2023-05-15T15:09:34.555Z,21.40
2023-05-15T15:12:36.323Z,21.10
2023-05-15T15:15:38.228Z,20.90
2023-05-15T15:18:40.068Z,20.70
2023-05-15T15:21:41.932Z,20.50
2023-05-15T15:24:44.407Z,20.60
2023-05-15T15:27:46.766Z,20.30
2023-05-15T15:30:48.570Z,20.30
2023-05-15T15:33:50.356Z,20.30
2023-05-15T15:36:52.402Z,20.40
2023-05-15T15:39:54.123Z,20.50
2023-05-15T15:42:55.908Z,20.50
2023-05-15T15:45:57.719Z,20.60
2023-05-15T15:49:00.166Z,20.70
2023-05-15T15:52:02.027Z,20.80
2023-05-15T15:55:04.013Z,20.80
2023-05-15T15:58:06.248Z,20.80
2023-05-15T16:01:08.125Z,20.70
2023-05-15T16:04:10.012Z,20.60
2023-05-15T16:07:12.148Z,20.50
2023-05-15T16:10:13.847Z,20.50
2023-05-15T16:13:16.086Z,20.30
2023-05-15T16:16:18.439Z,20.20
2023-05-15T16:19:20.338Z,20.10
2023-05-15T16:22:22.448Z,20.00
2023-05-15T16:25:24.258Z,19.80
2023-05-15T16:28:26.282Z,19.70
2023-05-15T16:31:28.128Z,19.60
2023-05-15T16:34:30.036Z,19.50
2023-05-15T16:37:32.530Z,19.40
2023-05-15T16:40:34.284Z,19.40
2023-05-15T16:43:36.185Z,19.40
2023-05-15T16:46:38.676Z,19.40
2023-05-15T16:49:42.658Z,19.30
2023-05-15T16:52:47.643Z,19.30
2023-05-15T16:55:49.652Z,19.20
2023-05-15T16:58:53.024Z,19.10
2023-05-15T17:01:54.926Z,19.10
2023-05-15T17:04:56.672Z,19.00
2023-05-15T17:07:58.421Z,19.00
2023-05-15T17:11:00.258Z,18.90
2023-05-15T17:14:02.057Z,18.80
2023-05-15T17:17:04.205Z,18.80
2023-05-15T17:20:06.701Z,18.70
2023-05-15T17:23:08.540Z,18.70
2023-05-15T17:26:10.480Z,18.70
2023-05-15T17:29:12.597Z,18.70
2023-05-15T17:32:15.019Z,18.70
2023-05-15T17:35:16.878Z,18.70
2023-05-15T17:38:19.492Z,18.70
2023-05-15T17:41:22.162Z,18.70
2023-05-15T17:44:28.054Z,18.70
2023-05-15T17:47:29.881Z,18.70
2023-05-15T17:50:32.392Z,18.70
2023-05-15T17:53:34.461Z,18.70
2023-05-15T17:56:36.436Z,18.70
2023-05-15T17:59:38.300Z,18.70
2023-05-15T18:02:40.091Z,18.70
2023-05-15T18:05:41.959Z,18.70
2023-05-15T18:08:47.872Z,18.70
2023-05-15T18:11:49.847Z,18.70
2023-05-15T18:14:51.667Z,18.60
2023-05-15T18:17:53.678Z,18.50
2023-05-15T18:20:55.604Z,18.40
2023-05-15T18:23:57.588Z,18.40
2023-05-15T18:26:59.279Z,18.20
2023-05-15T18:30:02.562Z,18.20
2023-05-15T18:33:04.620Z,18.10
2023-05-15T18:36:07.744Z,18.00
2023-05-15T18:39:09.510Z,17.90
2023-05-15T18:42:11.434Z,17.70
2023-05-15T18:45:13.428Z,17.60
2023-05-15T18:48:15.759Z,17.40
2023-05-15T18:51:17.572Z,17.30
2023-05-15T18:54:19.493Z,17.20
2023-05-15T18:57:21.304Z,17.10
2023-05-15T19:00:36.530Z,17.00
2023-05-15T19:03:40.126Z,16.90
2023-05-15T19:06:45.401Z,16.90
2023-05-15T19:09:47.502Z,16.80
2023-05-15T19:12:49.743Z,16.80
2023-05-15T19:15:52.564Z,16.70
2023-05-15T19:18:55.639Z,16.60
2023-05-15T19:21:57.683Z,16.60
2023-05-15T19:25:00.084Z,16.50
2023-05-15T19:28:02.037Z,16.50
2023-05-15T19:31:04.737Z,16.40
2023-05-15T19:34:06.610Z,16.30
2023-05-15T19:37:08.396Z,16.20
2023-05-15T19:40:10.502Z,16.10
2023-05-15T19:43:14.142Z,16.00
2023-05-15T19:46:16.972Z,15.90
2023-05-15T19:49:18.936Z,15.90
2023-05-15T19:52:21.407Z,15.70
2023-05-15T19:55:23.355Z,15.60
2023-05-15T19:58:25.681Z,15.60
2023-05-15T20:01:27.453Z,15.50
2023-05-15T20:04:29.330Z,15.40
2023-05-15T20:07:31.537Z,15.30
2023-05-15T20:10:33.395Z,15.20
2023-05-15T20:13:35.367Z,15.10
2023-05-15T20:16:37.421Z,15.00
2023-05-15T20:19:39.341Z,15.00
2023-05-15T20:22:44.172Z,14.90
2023-05-15T20:25:46.359Z,14.80
2023-05-15T20:28:48.151Z,14.70
2023-05-15T20:31:50.244Z,14.50
2023-05-15T20:34:52.143Z,14.50
2023-05-15T20:37:53.982Z,14.50
2023-05-15T20:40:56.637Z,14.40
2023-05-15T20:43:58.471Z,14.30
2023-05-15T20:47:00.446Z,14.20
2023-05-15T20:50:02.534Z,14.20
2023-05-15T20:53:04.648Z,14.10
2023-05-15T20:56:06.383Z,14.00
2023-05-15T20:59:08.220Z,14.00
2023-05-15T21:02:10.097Z,14.00
2023-05-15T21:05:12.073Z,13.90
2023-05-15T21:08:14.108Z,13.90
2023-05-15T21:11:15.852Z,13.80
2023-05-15T21:14:17.943Z,13.70
2023-05-15T21:17:19.915Z,13.70
2023-05-15T21:20:21.696Z,13.60
2023-05-15T21:23:23.573Z,13.50
2023-05-15T21:26:26.130Z,13.50
2023-05-15T21:29:28.001Z,13.50
2023-05-15T21:32:29.852Z,13.40
2023-05-15T21:35:31.911Z,13.40
2023-05-15T21:38:33.695Z,13.30
2023-05-15T21:41:35.665Z,13.20
2023-05-15T21:44:37.459Z,13.10
2023-05-15T21:47:39.292Z,13.10
2023-05-15T21:50:41.228Z,13.00
2023-05-15T21:53:43.052Z,13.00
2023-05-15T21:56:44.848Z,12.90
2023-05-15T21:59:46.689Z,12.90
2023-05-15T22:02:48.518Z,12.80
2023-05-15T22:05:52.794Z,12.70
2023-05-15T22:08:54.742Z,12.70
2023-05-15T22:11:56.697Z,12.70
2023-05-15T22:14:59.658Z,12.60
2023-05-15T22:18:01.932Z,12.30
2023-05-15T22:21:03.821Z,12.50
2023-05-15T22:24:06.018Z,12.40
2023-05-15T22:27:07.862Z,12.40
2023-05-15T22:30:09.932Z,12.40
2023-05-15T22:33:11.827Z,12.30
2023-05-15T22:36:13.615Z,12.20
2023-05-15T22:39:15.461Z,12.20
2023-05-15T22:42:18.536Z,12.20
2023-05-15T22:45:20.394Z,12.10
2023-05-15T22:48:23.196Z,12.00
2023-05-15T22:51:24.974Z,12.00
2023-05-15T22:54:26.839Z,11.90
2023-05-15T22:57:28.984Z,11.90
2023-05-15T23:00:31.159Z,11.60
2023-05-15T23:03:33.250Z,11.80
2023-05-15T23:06:35.068Z,11.70
2023-05-15T23:09:37.735Z,11.70
2023-05-15T23:12:40.014Z,11.60
2023-05-15T23:15:44.283Z,11.60
2023-05-15T23:18:46.367Z,11.50
2023-05-15T23:21:48.297Z,11.40
2023-05-15T23:24:50.043Z,11.40
2023-05-15T23:27:51.853Z,11.30
2023-05-15T23:30:54.225Z,11.30
2023-05-15T23:33:56.026Z,11.30
2023-05-15T23:36:57.822Z,11.20
2023-05-15T23:39:59.584Z,11.20
2023-05-15T23:43:01.322Z,11.20
2023-05-15T23:46:04.408Z,11.10
2023-05-15T23:49:06.253Z,11.10
2023-05-15T23:52:08.024Z,11.20
2023-05-15T23:55:10.467Z,11.20
2023-05-15T23:58:12.385Z,11.20
